Time;durP1;ratioP1;P1;durP2;ratioP2;P2;SDS_P1;SDS_P2;PMS_P1;PMS_P2;Temp;Humidity;BMP_temperature;BMP_pressure;BME280_temperature;BME280_humidity;BME280_pressure;Samples;Min_cycle;Max_cycle;Signal;HPM_P1;HPM_P2
2022/11/08 00:02:30;;;;;;;26.55;19.02;;;10.60;82.60;;;;;;10715790;33;20028;-76
2022/11/08 00:14:53;;;;;;;23.83;14.38;;;10.60;82.50;;;;;;10715281;33;20033;-77
2022/11/08 00:21:00;;;;;;;19.42;15.52;;;10.40;82.60;;;;;;10716411;33;20052;-76
2022/11/08 00:27:06;;;;;;;23.70;16.92;;;10.40;82.50;;;;;;10894707;27;20109;-76
2022/11/08 00:33:08;;;;;;;19.48;16.08;;;10.50;82.50;;;;;;10905412;32;20434;-77
2022/11/08 00:39:10;;;;;;;16.42;14.38;;;10.40;82.40;;;;;;10904506;32;20050;-77
2022/11/08 00:45:12;;;;;;;17.65;14.55;;;10.30;82.50;;;;;;10900957;32;20109;-77
2022/11/08 00:51:14;;;;;;;23.23;16.65;;;10.30;82.40;;;;;;10904682;32;20042;-76
2022/11/08 00:57:16;;;;;;;15.30;12.88;;;10.20;82.40;;;;;;10904518;32;20086;-77
2022/11/08 01:03:18;;;;;;;16.62;13.55;;;10.20;82.40;;;;;;10904032;32;20027;-77
2022/11/08 01:09:20;;;;;;;16.95;12.50;;;10.20;82.30;;;;;;10901665;32;20046;-77
2022/11/08 01:15:23;;;;;;;17.23;14.10;;;10.10;82.40;;;;;;10901117;32;20057;-77
2022/11/08 01:21:47;;;;;;;19.35;14.68;;;9.90;82.50;;;;;;10902191;32;20046;-76
2022/11/08 01:27:49;;;;;;;28.83;16.37;;;9.90;82.60;;;;;;10900696;32;20031;-77
2022/11/08 01:33:52;;;;;;;18.40;15.35;;;9.90;82.60;;;;;;10903864;32;20024;-77
2022/11/08 01:39:54;;;;;;;16.23;13.00;;;9.90;82.40;;;;;;10903719;32;20046;-76
2022/11/08 01:46:09;;;;;;;18.67;14.77;;;9.90;82.40;;;;;;10903494;32;20070;-76
2022/11/08 01:52:21;;;;;;;22.33;15.55;;;9.90;82.40;;;;;;10900465;32;20019;-77
2022/11/08 01:58:29;;;;;;;16.90;13.70;;;9.90;82.30;;;;;;10901403;32;20407;-77
2022/11/08 02:04:32;;;;;;;17.15;13.60;;;9.80;82.40;;;;;;10904465;32;20045;-77
2022/11/08 02:10:37;;;;;;;17.92;12.85;;;9.70;82.50;;;;;;10892971;32;20035;-77
2022/11/08 02:16:39;;;;;;;19.12;13.52;;;9.70;82.60;;;;;;10907390;32;20019;-77
2022/11/08 02:23:14;;;;;;;21.30;15.57;;;9.70;82.60;;;;;;10894652;32;20065;-77
2022/11/08 02:29:31;;;;;;;20.52;17.85;;;9.70;82.80;;;;;;10722418;32;20469;-77
2022/11/08 02:35:33;;;;;;;17.30;14.43;;;9.70;82.70;;;;;;10721037;33;20083;-77
2022/11/08 02:41:35;;;;;;;20.02;15.25;;;9.80;82.60;;;;;;10720917;33;20052;-77
2022/11/08 02:47:38;;;;;;;21.30;17.25;;;9.80;82.70;;;;;;10722359;33;20230;-77
2022/11/08 02:53:41;;;;;;;24.25;18.58;;;9.80;82.40;;;;;;10718132;33;20025;-77
2022/11/08 02:59:43;;;;;;;20.70;17.75;;;9.80;82.30;;;;;;10718060;33;20051;-76
2022/11/08 03:05:46;;;;;;;22.35;14.85;;;9.70;82.70;;;;;;10858444;32;20057;-77
2022/11/08 03:11:48;;;;;;;15.85;12.05;;;9.70;82.70;;;;;;10904020;32;20026;-77
2022/11/08 03:17:50;;;;;;;17.52;13.27;;;9.60;82.50;;;;;;10907879;32;20019;-77
2022/11/08 03:23:53;;;;;;;17.35;15.07;;;9.40;82.60;;;;;;10907721;32;20065;-77
2022/11/08 03:29:55;;;;;;;21.87;16.02;;;9.30;82.80;;;;;;10907755;32;20404;-77
2022/11/08 03:35:57;;;;;;;17.33;14.98;;;9.50;82.60;;;;;;10905161;32;20034;-78
2022/11/08 03:42:01;;;;;;;19.27;16.65;;;9.40;82.50;;;;;;10907294;32;20126;-78
2022/11/08 03:48:04;;;;;;;18.50;13.27;;;9.30;82.60;;;;;;10907053;32;20027;-77
2022/11/08 03:54:06;;;;;;;13.77;11.07;;;9.30;82.50;;;;;;10906908;32;20351;-78
2022/11/08 04:00:10;;;;;;;18.45;13.50;;;9.20;82.90;;;;;;10906523;32;20027;-78
2022/11/08 04:06:12;;;;;;;18.10;14.25;;;9.10;83.10;;;;;;10906238;32;20046;-77
2022/11/08 04:24:55;;;;;;;17.15;13.55;;;8.90;83.30;;;;;;10905820;32;20022;-78
2022/11/08 04:31:01;;;;;;;18.10;13.82;;;8.90;83.10;;;;;;10905005;32;20403;-77
2022/11/08 04:37:03;;;;;;;21.62;18.65;;;8.90;83.00;;;;;;10905421;32;20019;-78
2022/11/08 04:43:05;;;;;;;17.52;15.05;;;8.90;83.00;;;;;;10901255;32;20035;-78
2022/11/08 04:49:11;;;;;;;21.45;16.12;;;9.00;82.80;;;;;;10904926;32;20042;-78
2022/11/08 04:55:13;;;;;;;16.37;13.70;;;9.00;82.60;;;;;;10904728;32;20019;-78
2022/11/08 05:01:17;;;;;;;19.15;16.92;;;9.10;82.50;;;;;;10904592;32;20023;-78
2022/11/08 05:07:19;;;;;;;18.35;13.48;;;9.00;83.10;;;;;;10904356;32;20023;-78
2022/11/08 05:13:21;;;;;;;21.00;14.40;;;9.00;83.00;;;;;;10904298;32;20011;-78
2022/11/08 05:25:47;;;;;;;20.05;14.35;;;8.70;82.90;;;;;;10899654;32;20085;-77
2022/11/08 05:31:49;;;;;;;16.17;12.23;;;8.70;82.80;;;;;;10890456;32;20023;-78
2022/11/08 05:37:51;;;;;;;20.42;17.50;;;8.70;82.70;;;;;;10900089;32;20018;-77
2022/11/08 05:43:54;;;;;;;16.48;13.65;;;8.70;82.70;;;;;;10911270;32;20027;-78
2022/11/08 05:49:57;;;;;;;21.67;13.62;;;8.70;82.50;;;;;;10911345;32;20051;-77
2022/11/08 05:56:01;;;;;;;16.87;13.75;;;8.70;82.90;;;;;;10908584;32;20053;-77
2022/11/08 06:02:03;;;;;;;17.30;11.95;;;8.90;82.80;;;;;;10897240;32;20019;-77
2022/11/08 06:08:05;;;;;;;16.98;12.25;;;9.10;82.40;;;;;;10908186;32;20297;-78
2022/11/08 06:14:08;;;;;;;21.23;16.17;;;8.80;82.20;;;;;;10906164;32;20062;-77
2022/11/08 06:20:14;;;;;;;13.32;11.30;;;8.60;83.10;;;;;;10908941;32;20039;-78
2022/11/08 06:26:16;;;;;;;12.05;10.68;;;8.60;82.70;;;;;;10905067;32;20053;-77
2022/11/08 06:32:19;;;;;;;15.30;11.15;;;8.50;83.10;;;;;;10909370;32;20042;-79
2022/11/08 06:38:21;;;;;;;15.65;11.07;;;8.50;82.90;;;;;;10905191;32;20042;-79
2022/11/08 06:44:24;;;;;;;14.87;12.57;;;8.40;83.00;;;;;;10909210;32;20026;-77
2022/11/08 06:50:27;;;;;;;13.52;11.93;;;8.50;83.20;;;;;;10908556;32;20069;-78
2022/11/08 06:56:29;;;;;;;17.23;11.88;;;8.80;83.10;;;;;;10908896;32;20046;-78
2022/11/08 07:02:31;;;;;;;18.50;14.15;;;9.20;83.10;;;;;;10907117;32;20200;-78
2022/11/08 07:08:34;;;;;;;17.73;12.27;;;9.60;82.80;;;;;;10914552;32;20020;-78
2022/11/08 07:14:37;;;;;;;19.25;12.63;;;9.90;82.60;;;;;;10896369;32;20248;-77
2022/11/08 07:20:40;;;;;;;22.70;13.07;;;9.90;82.40;;;;;;10915876;32;20053;-78
2022/11/08 07:26:42;;;;;;;15.88;11.55;;;9.90;82.60;;;;;;10907484;32;20054;-78
2022/11/08 07:32:45;;;;;;;16.42;13.18;;;10.00;82.70;;;;;;10903431;32;20031;-78
2022/11/08 07:38:47;;;;;;;16.12;12.15;;;10.20;82.50;;;;;;10907506;32;20046;-78
2022/11/08 07:44:49;;;;;;;13.55;10.25;;;10.20;83.00;;;;;;10906839;32;20026;-78
2022/11/08 07:50:51;;;;;;;15.98;10.02;;;10.20;82.70;;;;;;10889374;32;20015;-78
2022/11/08 07:56:56;;;;;;;13.10;10.70;;;10.10;83.10;;;;;;10903814;32;20023;-78
2022/11/08 08:02:59;;;;;;;12.37;9.90;;;10.20;83.50;;;;;;10905804;32;20034;-78
2022/11/08 08:09:02;;;;;;;11.88;9.68;;;10.20;83.40;;;;;;10906358;32;20019;-78
2022/11/08 08:15:04;;;;;;;11.48;10.25;;;10.30;84.30;;;;;;10906083;32;20019;-78
2022/11/08 08:25:40;;;;;;;12.20;9.38;;;10.70;84.50;;;;;;10603949;32;13053264;-79
2022/11/08 08:31:43;;;;;;;10.05;7.03;;;11.00;85.10;;;;;;10967599;32;20031;-78
2022/11/08 08:37:45;;;;;;;12.13;8.82;;;11.10;85.40;;;;;;10971087;32;20065;-78
2022/11/08 08:43:47;;;;;;;16.42;9.65;;;11.20;85.50;;;;;;10968528;32;20027;-78
2022/11/08 08:49:50;;;;;;;8.63;6.22;;;11.30;86.00;;;;;;10996651;32;20027;-78
2022/11/08 08:55:52;;;;;;;8.32;5.12;;;11.20;86.30;;;;;;11007491;32;20395;-78
2022/11/08 09:01:55;;;;;;;10.68;7.72;;;11.40;86.40;;;;;;11011400;32;20323;-79
2022/11/08 09:08:36;;;;;;;11.18;6.05;;;11.50;86.50;;;;;;11011284;32;20480;-78
2022/11/08 09:15:00;;;;;;;7.40;6.03;;;11.70;86.90;;;;;;11010945;32;20022;-79
2022/11/08 09:21:03;;;;;;;11.45;7.05;;;11.80;86.80;;;;;;11006407;32;20056;-78
2022/11/08 09:27:05;;;;;;;6.57;4.20;;;11.90;86.90;;;;;;11010530;32;20023;-78
2022/11/08 09:33:07;;;;;;;7.45;4.57;;;11.90;86.80;;;;;;11000630;32;20023;-78
2022/11/08 09:39:09;;;;;;;6.62;4.50;;;12.00;86.90;;;;;;10980230;32;20034;-78
2022/11/08 09:45:24;;;;;;;9.27;6.05;;;12.20;86.60;;;;;;10980301;32;20057;-78
2022/11/08 09:51:28;;;;;;;6.20;3.90;;;12.20;86.90;;;;;;10980143;32;20041;-78
2022/11/08 09:57:53;;;;;;;6.35;4.35;;;12.20;87.00;;;;;;10979766;32;20035;-78
2022/11/08 10:03:58;;;;;;;5.93;4.18;;;12.40;87.00;;;;;;10980215;32;20035;-78
2022/11/08 10:10:26;;;;;;;7.53;5.37;;;12.30;86.80;;;;;;10981032;32;20023;-78
2022/11/08 10:16:54;;;;;;;6.10;4.35;;;12.40;86.80;;;;;;10980427;32;20310;-78
2022/11/08 10:23:22;;;;;;;6.72;4.97;;;12.50;86.70;;;;;;10982817;32;20283;-78
2022/11/08 10:29:34;;;;;;;8.07;5.78;;;12.50;86.60;;;;;;10982924;32;20023;-77
2022/11/08 10:35:55;;;;;;;5.40;3.90;;;12.50;86.70;;;;;;10984344;32;20060;-77
2022/11/08 10:42:13;;;;;;;7.62;4.50;;;12.60;86.60;;;;;;10966235;32;20054;-78
2022/11/08 10:48:15;;;;;;;8.20;4.18;;;12.70;86.60;;;;;;10977196;32;20048;-77
2022/11/08 10:54:42;;;;;;;7.70;3.55;;;12.70;86.70;;;;;;10982017;32;20027;-77
2022/11/08 11:00:58;;;;;;;6.40;3.42;;;12.80;86.50;;;;;;10979590;32;20057;-77
2022/11/08 11:07:26;;;;;;;6.03;3.15;;;13.20;86.60;;;;;;10948309;32;20343;-77
2022/11/08 11:13:29;;;;;;;6.80;4.35;;;13.40;85.60;;;;;;10943726;32;20057;-78
2022/11/08 11:19:32;;;;;;;8.77;4.62;;;13.50;85.80;;;;;;10943617;32;20331;-77
2022/11/08 11:25:50;;;;;;;10.68;6.50;;;13.90;84.80;;;;;;10939301;32;20023;-77
2022/11/08 11:31:53;;;;;;;7.97;5.17;;;14.20;83.50;;;;;;10972009;32;20399;-77
2022/11/08 11:38:10;;;;;;;8.82;4.43;;;14.40;83.60;;;;;;10980851;32;20014;-77
2022/11/08 11:44:52;;;;;;;9.77;4.90;;;14.60;83.20;;;;;;10979880;32;20053;-77
2022/11/08 11:50:56;;;;;;;5.60;4.05;;;14.60;83.00;;;;;;10979752;32;20080;-77
2022/11/08 11:57:10;;;;;;;6.20;4.05;;;14.70;83.50;;;;;;10975226;32;20062;-77
2022/11/08 12:03:28;;;;;;;6.90;4.00;;;14.70;83.40;;;;;;10979384;32;20019;-77
2022/11/08 12:09:49;;;;;;;8.50;4.70;;;14.70;83.30;;;;;;10979332;32;20315;-76
2022/11/08 12:15:54;;;;;;;6.20;3.80;;;14.70;83.30;;;;;;10975003;32;20026;-76
2022/11/08 12:22:25;;;;;;;5.03;3.35;;;14.80;83.30;;;;;;10979122;32;20053;-76
2022/11/08 12:28:27;;;;;;;10.63;3.92;;;14.90;83.40;;;;;;10979087;32;20057;-77
2022/11/08 12:34:45;;;;;;;4.90;3.17;;;14.80;83.50;;;;;;10975638;32;20304;-77
2022/11/08 12:41:01;;;;;;;4.77;3.07;;;14.70;83.80;;;;;;10977053;32;20063;-77
2022/11/08 12:47:06;;;;;;;8.00;3.35;;;14.60;84.40;;;;;;10978272;32;20359;-77
2022/11/08 12:53:42;;;;;;;6.40;3.40;;;14.50;84.70;;;;;;10978516;32;20049;-77
2022/11/08 12:59:56;;;;;;;7.12;4.30;;;14.50;84.80;;;;;;10977852;32;20316;-77
2022/11/08 13:06:16;;;;;;;6.65;3.95;;;14.60;84.80;;;;;;10974020;32;20457;-77
2022/11/08 13:12:19;;;;;;;5.22;3.60;;;14.70;84.50;;;;;;10981465;32;20045;-78
2022/11/08 13:18:23;;;;;;;5.75;4.25;;;14.90;84.50;;;;;;10981585;32;20010;-78
2022/11/08 13:24:32;;;;;;;8.65;6.50;;;14.90;84.00;;;;;;10981120;32;20330;-77
2022/11/08 13:30:37;;;;;;;8.02;4.57;;;14.80;84.20;;;;;;10985051;32;20041;-78
2022/11/08 13:36:59;;;;;;;7.28;5.95;;;14.80;84.40;;;;;;10971249;32;20019;-77
2022/11/08 13:43:28;;;;;;;7.82;4.95;;;14.80;84.40;;;;;;10983854;32;20065;-77
2022/11/08 13:49:30;;;;;;;9.33;5.77;;;14.80;84.30;;;;;;10984401;32;20018;-77
2022/11/08 13:55:45;;;;;;;9.18;6.35;;;15.00;84.50;;;;;;10983534;32;20049;-77
2022/11/08 14:02:03;;;;;;;10.30;5.40;;;15.00;84.40;;;;;;10983833;32;20018;-77
2022/11/08 14:08:16;;;;;;;8.80;5.22;;;15.10;84.20;;;;;;10937127;32;20043;-77
2022/11/08 14:14:34;;;;;;;6.18;4.00;;;15.10;84.40;;;;;;10945712;32;20046;-77
2022/11/08 14:20:45;;;;;;;8.00;4.57;;;15.20;84.50;;;;;;10943182;32;20035;-77
2022/11/08 14:26:48;;;;;;;6.30;3.22;;;15.20;84.60;;;;;;10940700;32;20088;-77
2022/11/08 14:33:17;;;;;;;7.22;4.43;;;15.20;84.70;;;;;;10928505;32;20027;-77
2022/11/08 14:39:35;;;;;;;6.35;3.45;;;15.10;84.90;;;;;;10948274;32;20046;-77
2022/11/08 14:45:42;;;;;;;8.25;5.37;;;15.00;85.10;;;;;;10940248;32;20418;-77
2022/11/08 14:52:13;;;;;;;7.75;4.45;;;14.90;85.20;;;;;;10940390;32;20049;-77
2022/11/08 14:58:16;;;;;;;10.27;5.68;;;15.00;85.30;;;;;;10944104;32;20031;-77
2022/11/08 15:04:21;;;;;;;11.23;5.45;;;14.90;85.30;;;;;;10930130;32;20016;-77
2022/11/08 15:10:23;;;;;;;7.80;4.80;;;14.80;85.50;;;;;;10949108;32;20045;-77
2022/11/08 15:16:26;;;;;;;7.28;4.65;;;14.70;85.60;;;;;;10958467;32;20046;-77
2022/11/08 15:22:32;;;;;;;7.50;4.25;;;14.70;85.70;;;;;;10942879;32;20433;-77
2022/11/08 15:28:34;;;;;;;6.10;4.35;;;14.70;85.70;;;;;;10943115;32;20050;-77
2022/11/08 15:34:39;;;;;;;11.52;7.20;;;14.70;85.80;;;;;;10939328;32;20018;-77
2022/11/08 15:40:56;;;;;;;8.10;5.35;;;14.60;85.80;;;;;;10939430;32;20050;-77
2022/11/08 15:46:58;;;;;;;14.32;9.35;;;14.60;85.90;;;;;;10939200;32;20522;-77
2022/11/08 15:53:02;;;;;;;12.93;8.40;;;14.50;85.90;;;;;;10939863;32;20045;-77
2022/11/08 15:59:04;;;;;;;10.82;6.85;;;14.40;86.00;;;;;;10937922;32;20019;-77
2022/11/08 16:05:22;;;;;;;13.00;9.20;;;14.30;86.00;;;;;;10942059;32;20015;-78
2022/11/08 16:11:31;;;;;;;13.18;8.93;;;14.20;86.20;;;;;;10942035;32;20053;-78
2022/11/08 16:17:33;;;;;;;8.85;6.60;;;14.20;86.30;;;;;;10941635;32;20027;-77
2022/11/08 16:23:35;;;;;;;11.68;8.25;;;14.20;86.10;;;;;;10891789;27;20046;-78
2022/11/08 16:29:38;;;;;;;17.75;13.07;;;14.10;86.20;;;;;;10861183;32;20024;-78
2022/11/08 16:36:00;;;;;;;17.75;13.48;;;14.00;86.50;;;;;;10845796;32;20027;-78
2022/11/08 16:42:03;;;;;;;14.40;8.93;;;13.90;86.30;;;;;;10845949;32;20035;-78
2022/11/08 16:48:05;;;;;;;14.43;11.30;;;13.90;86.50;;;;;;10849591;32;20020;-78
2022/11/08 16:54:18;;;;;;;15.90;10.35;;;13.90;86.60;;;;;;10832948;32;20434;-77
2022/11/08 17:00:20;;;;;;;16.15;11.30;;;13.90;86.40;;;;;;10845557;32;20309;-78
2022/11/08 17:06:30;;;;;;;18.35;11.38;;;13.80;86.30;;;;;;10831494;32;20039;-78
2022/11/08 17:12:33;;;;;;;13.43;10.38;;;13.80;86.30;;;;;;10829688;33;20020;-78
2022/11/08 17:18:35;;;;;;;16.98;10.95;;;13.80;86.10;;;;;;10832022;32;20066;-78
2022/11/08 17:24:37;;;;;;;12.13;9.07;;;13.60;86.20;;;;;;10862920;32;20032;-78
2022/11/08 17:30:42;;;;;;;13.35;9.57;;;13.50;86.40;;;;;;10852825;32;20477;-77
2022/11/08 17:36:45;;;;;;;14.70;11.07;;;13.40;86.40;;;;;;10866148;32;20400;-78
2022/11/08 17:42:47;;;;;;;13.93;10.30;;;13.40;86.30;;;;;;10865881;32;20532;-78
2022/11/08 17:48:49;;;;;;;15.68;11.90;;;13.30;86.30;;;;;;10863817;32;20059;-78
2022/11/08 17:54:51;;;;;;;15.98;12.80;;;13.30;86.50;;;;;;10865362;32;20396;-78
2022/11/08 18:00:56;;;;;;;25.50;19.80;;;13.40;86.60;;;;;;10865305;32;20027;-78
2022/11/08 18:06:58;;;;;;;17.20;15.18;;;13.40;86.60;;;;;;10848016;32;20384;-78
2022/11/08 18:13:00;;;;;;;19.12;14.85;;;13.40;86.40;;;;;;10864957;32;20059;-78
2022/11/08 18:19:02;;;;;;;20.83;15.65;;;13.40;86.30;;;;;;10864840;32;20399;-78
2022/11/08 18:25:04;;;;;;;22.10;16.77;;;13.40;86.40;;;;;;10864373;32;20031;-78
2022/11/08 18:31:14;;;;;;;18.70;16.00;;;13.40;86.40;;;;;;10856701;32;20066;-78
2022/11/08 18:37:16;;;;;;;17.55;14.35;;;13.40;86.10;;;;;;10827506;33;20051;-77
2022/11/08 18:43:25;;;;;;;19.65;13.90;;;13.20;86.10;;;;;;10814007;33;20027;-78
2022/11/08 18:49:28;;;;;;;33.07;17.33;;;13.20;86.10;;;;;;10826911;33;20050;-78
2022/11/08 18:55:31;;;;;;;29.25;23.33;;;13.20;86.00;;;;;;10826324;33;20043;-78
2022/11/08 19:01:33;;;;;;;20.27;16.77;;;13.10;85.80;;;;;;10826179;33;20389;-78
2022/11/08 19:07:35;;;;;;;20.83;17.08;;;13.00;85.70;;;;;;10812354;32;20393;-78
2022/11/08 19:13:39;;;;;;;20.92;17.48;;;12.80;85.90;;;;;;10822777;33;20050;-77
2022/11/08 19:19:42;;;;;;;22.83;18.05;;;12.80;86.10;;;;;;10821583;32;20074;-76
2022/11/08 19:25:54;;;;;;;19.62;16.65;;;12.80;86.00;;;;;;10821486;33;20036;-78
2022/11/08 19:31:57;;;;;;;21.20;17.67;;;12.90;85.80;;;;;;10825595;33;20384;-78
2022/11/08 19:38:00;;;;;;;20.73;16.05;;;12.90;86.00;;;;;;10822059;33;20388;-78
2022/11/08 19:44:05;;;;;;;17.15;14.02;;;12.90;85.80;;;;;;10825082;33;20058;-78
2022/11/08 19:50:07;;;;;;;15.45;13.65;;;12.80;85.80;;;;;;10825068;33;20024;-78
2022/11/08 19:56:13;;;;;;;18.80;15.93;;;12.70;86.00;;;;;;10824885;33;20416;-78
2022/11/08 20:02:15;;;;;;;17.33;13.05;;;12.70;86.00;;;;;;10811601;33;20024;-78
2022/11/08 20:08:18;;;;;;;21.77;19.20;;;12.60;85.90;;;;;;10824805;33;20392;-78
2022/11/08 20:14:38;;;;;;;22.05;16.75;;;12.70;85.70;;;;;;10824517;33;20455;-78
2022/11/08 20:20:58;;;;;;;22.13;18.52;;;12.70;85.40;;;;;;10824050;32;20054;-78
2022/11/08 20:27:01;;;;;;;26.10;22.05;;;12.50;85.40;;;;;;10824241;33;20050;-78
2022/11/08 20:33:03;;;;;;;23.70;18.95;;;12.60;85.40;;;;;;10810885;33;20016;-78
2022/11/08 20:39:06;;;;;;;18.25;16.27;;;12.60;85.40;;;;;;10833971;32;20335;-78
2022/11/08 20:45:28;;;;;;;21.62;16.00;;;12.60;85.20;;;;;;10841482;32;20055;-77
2022/11/08 20:51:37;;;;;;;17.15;15.27;;;12.40;85.20;;;;;;10820671;32;20063;-77
2022/11/08 20:57:39;;;;;;;18.87;15.88;;;12.30;85.10;;;;;;10825055;33;20412;-77
2022/11/08 21:03:44;;;;;;;19.80;15.48;;;12.20;85.30;;;;;;10823175;33;20054;-77
2022/11/08 21:09:47;;;;;;;18.55;14.70;;;12.30;85.10;;;;;;10823169;33;20016;-77
2022/11/08 21:15:50;;;;;;;23.23;18.77;;;12.20;85.10;;;;;;10890103;32;20067;-77
2022/11/08 21:22:13;;;;;;;24.08;19.48;;;12.10;85.20;;;;;;10826410;32;20336;-77
2022/11/08 21:28:14;;;;;;;24.95;20.45;;;12.20;85.20;;;;;;10821407;32;20347;-77
2022/11/08 21:34:16;;;;;;;21.37;17.55;;;12.20;85.00;;;;;;10854861;32;20305;-77
2022/11/08 21:40:19;;;;;;;21.45;17.10;;;12.20;84.80;;;;;;10863001;32;20027;-78
2022/11/08 21:46:36;;;;;;;19.12;15.82;;;12.20;84.80;;;;;;10865668;32;20024;-78
2022/11/08 21:52:38;;;;;;;22.23;19.77;;;12.20;84.80;;;;;;10861761;32;20023;-78
2022/11/08 21:58:40;;;;;;;20.33;15.02;;;12.10;84.80;;;;;;10861234;32;20082;-77
2022/11/08 22:04:42;;;;;;;20.88;17.42;;;12.10;84.70;;;;;;10862850;32;20058;-78
2022/11/08 22:10:46;;;;;;;21.30;16.20;;;12.10;84.80;;;;;;10860965;32;20016;-78
2022/11/08 22:16:58;;;;;;;21.85;14.82;;;12.10;84.80;;;;;;10865023;32;20347;-77
2022/11/08 22:23:00;;;;;;;20.42;15.27;;;12.20;84.60;;;;;;10863452;32;20386;-77
2022/11/08 22:29:04;;;;;;;18.15;16.25;;;12.00;84.60;;;;;;10851545;32;20023;-77
2022/11/08 22:35:07;;;;;;;17.62;14.98;;;12.10;84.80;;;;;;10864677;32;20046;-78
2022/11/08 22:41:09;;;;;;;17.75;13.98;;;12.10;84.90;;;;;;10847464;32;20046;-77
2022/11/08 22:47:11;;;;;;;18.23;15.18;;;12.10;85.00;;;;;;10864166;32;20038;-77
2022/11/08 22:53:13;;;;;;;20.12;14.32;;;11.90;85.10;;;;;;10861315;32;20054;-78
2022/11/08 22:59:15;;;;;;;14.82;11.70;;;11.90;85.10;;;;;;10863505;32;20031;-78
2022/11/08 23:05:17;;;;;;;22.40;16.37;;;11.80;85.10;;;;;;10863679;32;20335;-78
2022/11/08 23:18:29;;;;;;;17.60;14.63;;;11.90;84.90;;;;;;10755347;33;20337;-78
2022/11/08 23:24:31;;;;;;;24.58;19.87;;;11.80;84.90;;;;;;10752065;33;20103;-78
2022/11/08 23:36:59;;;;;;;21.12;16.60;;;11.80;84.60;;;;;;10750520;33;20412;-78
2022/11/08 23:49:37;;;;;;;16.90;15.10;;;11.70;84.70;;;;;;10789524;32;20047;-78
2022/11/08 23:55:39;;;;;;;16.92;15.15;;;11.70;84.50;;;;;;10849883;32;20042;-78
